sensor_id;sensor_type;location;lat;lon;timestamp;P1;durP1;ratioP1;P2;durP2;ratioP2
75191;SDS011;63771;52.580;9.734;2023-04-08T00:02:08;4.82;;;3.30;;
75191;SDS011;63771;52.580;9.734;2023-04-08T00:04:33;4.53;;;4.13;;
75191;SDS011;63771;52.580;9.734;2023-04-08T00:06:58;5.75;;;4.20;;
75191;SDS011;63771;52.580;9.734;2023-04-08T00:09:23;6.17;;;3.50;;
75191;SDS011;63771;52.580;9.734;2023-04-08T00:11:49;4.00;;;3.60;;
75191;SDS011;63771;52.580;9.734;2023-04-08T00:14:14;6.15;;;3.75;;
75191;SDS011;63771;52.580;9.734;2023-04-08T00:16:39;3.73;;;3.43;;
75191;SDS011;63771;52.580;9.734;2023-04-08T00:19:05;5.60;;;4.00;;
75191;SDS011;63771;52.580;9.734;2023-04-08T00:21:30;4.72;;;3.25;;
75191;SDS011;63771;52.580;9.734;2023-04-08T00:23:56;5.43;;;3.40;;
75191;SDS011;63771;52.580;9.734;2023-04-08T00:26:21;3.80;;;3.50;;
75191;SDS011;63771;52.580;9.734;2023-04-08T00:28:47;4.03;;;3.63;;
75191;SDS011;63771;52.580;9.734;2023-04-08T00:31:12;4.57;;;3.22;;
75191;SDS011;63771;52.580;9.734;2023-04-08T00:33:38;4.00;;;3.50;;
75191;SDS011;63771;52.580;9.734;2023-04-08T00:36:03;3.53;;;3.20;;
75191;SDS011;63771;52.580;9.734;2023-04-08T00:38:28;3.67;;;3.10;;
75191;SDS011;63771;52.580;9.734;2023-04-08T00:40:54;3.45;;;3.15;;
75191;SDS011;63771;52.580;9.734;2023-04-08T00:43:20;4.15;;;3.15;;
75191;SDS011;63771;52.580;9.734;2023-04-08T00:45:46;5.65;;;3.83;;
75191;SDS011;63771;52.580;9.734;2023-04-08T00:48:12;4.03;;;3.10;;
75191;SDS011;63771;52.580;9.734;2023-04-08T00:50:37;4.10;;;3.80;;
75191;SDS011;63771;52.580;9.734;2023-04-08T00:53:03;3.72;;;3.42;;
75191;SDS011;63771;52.580;9.734;2023-04-08T00:55:28;4.50;;;3.77;;
75191;SDS011;63771;52.580;9.734;2023-04-08T00:57:54;4.82;;;3.80;;
75191;SDS011;63771;52.580;9.734;2023-04-08T01:00:20;4.97;;;3.78;;
75191;SDS011;63771;52.580;9.734;2023-04-08T01:03:07;4.55;;;3.22;;
75191;SDS011;63771;52.580;9.734;2023-04-08T01:05:39;4.03;;;3.60;;
75191;SDS011;63771;52.580;9.734;2023-04-08T01:08:08;4.05;;;3.42;;
75191;SDS011;63771;52.580;9.734;2023-04-08T01:10:35;4.18;;;3.78;;
75191;SDS011;63771;52.580;9.734;2023-04-08T01:13:03;5.10;;;4.00;;
75191;SDS011;63771;52.580;9.734;2023-04-08T01:15:32;5.80;;;4.40;;
75191;SDS011;63771;52.580;9.734;2023-04-08T01:18:00;5.65;;;4.40;;
75191;SDS011;63771;52.580;9.734;2023-04-08T01:20:31;5.57;;;4.63;;
75191;SDS011;63771;52.580;9.734;2023-04-08T01:23:01;5.88;;;4.43;;
75191;SDS011;63771;52.580;9.734;2023-04-08T01:25:35;7.13;;;4.43;;
75191;SDS011;63771;52.580;9.734;2023-04-08T01:28:21;5.78;;;4.15;;
75191;SDS011;63771;52.580;9.734;2023-04-08T01:30:48;5.78;;;4.90;;
75191;SDS011;63771;52.580;9.734;2023-04-08T01:33:15;6.60;;;5.30;;
75191;SDS011;63771;52.580;9.734;2023-04-08T01:35:42;7.93;;;5.55;;
75191;SDS011;63771;52.580;9.734;2023-04-08T01:38:10;6.45;;;4.80;;
75191;SDS011;63771;52.580;9.734;2023-04-08T01:40:39;7.28;;;5.30;;
75191;SDS011;63771;52.580;9.734;2023-04-08T01:43:07;6.45;;;5.47;;
75191;SDS011;63771;52.580;9.734;2023-04-08T01:45:34;6.43;;;4.63;;
75191;SDS011;63771;52.580;9.734;2023-04-08T01:47:59;5.80;;;5.27;;
75191;SDS011;63771;52.580;9.734;2023-04-08T01:50:26;7.90;;;5.80;;
75191;SDS011;63771;52.580;9.734;2023-04-08T01:52:53;5.68;;;4.90;;
75191;SDS011;63771;52.580;9.734;2023-04-08T01:55:19;8.70;;;6.30;;
75191;SDS011;63771;52.580;9.734;2023-04-08T01:57:48;6.65;;;5.20;;
75191;SDS011;63771;52.580;9.734;2023-04-08T02:00:17;12.57;;;6.88;;
75191;SDS011;63771;52.580;9.734;2023-04-08T02:02:45;10.55;;;6.43;;
75191;SDS011;63771;52.580;9.734;2023-04-08T02:05:12;7.78;;;5.68;;
75191;SDS011;63771;52.580;9.734;2023-04-08T02:07:38;8.85;;;6.70;;
75191;SDS011;63771;52.580;9.734;2023-04-08T02:10:03;7.38;;;5.63;;
75191;SDS011;63771;52.580;9.734;2023-04-08T02:12:29;8.40;;;6.55;;
75191;SDS011;63771;52.580;9.734;2023-04-08T02:14:55;8.13;;;6.40;;
75191;SDS011;63771;52.580;9.734;2023-04-08T02:17:28;9.35;;;6.53;;
75191;SDS011;63771;52.580;9.734;2023-04-08T02:20:02;9.00;;;6.40;;
75191;SDS011;63771;52.580;9.734;2023-04-08T02:22:30;13.30;;;7.55;;
75191;SDS011;63771;52.580;9.734;2023-04-08T02:25:04;9.68;;;6.10;;
75191;SDS011;63771;52.580;9.734;2023-04-08T02:27:34;8.60;;;6.32;;
75191;SDS011;63771;52.580;9.734;2023-04-08T02:30:02;12.70;;;6.72;;
75191;SDS011;63771;52.580;9.734;2023-04-08T02:34:56;11.90;;;6.40;;
75191;SDS011;63771;52.580;9.734;2023-04-08T02:37:23;9.77;;;6.80;;
75191;SDS011;63771;52.580;9.734;2023-04-08T02:39:49;9.23;;;6.43;;
75191;SDS011;63771;52.580;9.734;2023-04-08T02:42:14;9.40;;;6.60;;
75191;SDS011;63771;52.580;9.734;2023-04-08T02:44:39;10.65;;;7.70;;
75191;SDS011;63771;52.580;9.734;2023-04-08T02:47:05;9.53;;;6.57;;
75191;SDS011;63771;52.580;9.734;2023-04-08T02:49:30;9.30;;;6.17;;
75191;SDS011;63771;52.580;9.734;2023-04-08T02:51:55;11.00;;;6.80;;
75191;SDS011;63771;52.580;9.734;2023-04-08T02:54:21;8.53;;;5.83;;
75191;SDS011;63771;52.580;9.734;2023-04-08T02:56:46;8.00;;;6.30;;
75191;SDS011;63771;52.580;9.734;2023-04-08T02:59:11;9.03;;;6.37;;
75191;SDS011;63771;52.580;9.734;2023-04-08T03:01:37;9.17;;;6.43;;
75191;SDS011;63771;52.580;9.734;2023-04-08T03:04:02;10.63;;;7.03;;
75191;SDS011;63771;52.580;9.734;2023-04-08T03:06:27;9.05;;;6.45;;
75191;SDS011;63771;52.580;9.734;2023-04-08T03:08:53;11.47;;;6.63;;
75191;SDS011;63771;52.580;9.734;2023-04-08T03:11:18;11.07;;;6.53;;
75191;SDS011;63771;52.580;9.734;2023-04-08T03:13:43;10.53;;;6.50;;
75191;SDS011;63771;52.580;9.734;2023-04-08T03:16:10;8.52;;;7.18;;
75191;SDS011;63771;52.580;9.734;2023-04-08T03:18:35;9.80;;;6.13;;
75191;SDS011;63771;52.580;9.734;2023-04-08T03:21:01;11.13;;;7.07;;
75191;SDS011;63771;52.580;9.734;2023-04-08T03:23:27;10.98;;;6.72;;
75191;SDS011;63771;52.580;9.734;2023-04-08T03:25:52;12.07;;;6.63;;
75191;SDS011;63771;52.580;9.734;2023-04-08T03:28:17;11.43;;;7.13;;
75191;SDS011;63771;52.580;9.734;2023-04-08T03:30:43;10.00;;;6.77;;
75191;SDS011;63771;52.580;9.734;2023-04-08T03:33:08;11.63;;;7.10;;
75191;SDS011;63771;52.580;9.734;2023-04-08T03:35:33;9.33;;;5.57;;
75191;SDS011;63771;52.580;9.734;2023-04-08T03:37:59;12.65;;;6.97;;
75191;SDS011;63771;52.580;9.734;2023-04-08T03:40:24;11.55;;;8.02;;
75191;SDS011;63771;52.580;9.734;2023-04-08T03:42:50;11.50;;;7.97;;
75191;SDS011;63771;52.580;9.734;2023-04-08T03:45:15;9.50;;;7.10;;
75191;SDS011;63771;52.580;9.734;2023-04-08T03:47:41;11.00;;;7.30;;
75191;SDS011;63771;52.580;9.734;2023-04-08T03:50:06;13.10;;;7.77;;
75191;SDS011;63771;52.580;9.734;2023-04-08T03:52:32;14.52;;;7.60;;
75191;SDS011;63771;52.580;9.734;2023-04-08T03:54:57;14.97;;;7.63;;
75191;SDS011;63771;52.580;9.734;2023-04-08T03:57:22;15.03;;;7.93;;
75191;SDS011;63771;52.580;9.734;2023-04-08T03:59:48;15.30;;;8.13;;
75191;SDS011;63771;52.580;9.734;2023-04-08T04:02:13;11.33;;;7.90;;
75191;SDS011;63771;52.580;9.734;2023-04-08T04:04:38;11.63;;;7.80;;
75191;SDS011;63771;52.580;9.734;2023-04-08T04:07:04;11.45;;;8.40;;
75191;SDS011;63771;52.580;9.734;2023-04-08T04:09:29;15.97;;;8.63;;
75191;SDS011;63771;52.580;9.734;2023-04-08T04:11:54;12.00;;;8.23;;
75191;SDS011;63771;52.580;9.734;2023-04-08T04:14:20;15.47;;;8.60;;
75191;SDS011;63771;52.580;9.734;2023-04-08T04:16:45;12.17;;;7.80;;
75191;SDS011;63771;52.580;9.734;2023-04-08T04:19:10;12.00;;;7.40;;
75191;SDS011;63771;52.580;9.734;2023-04-08T04:21:35;17.97;;;7.47;;
75191;SDS011;63771;52.580;9.734;2023-04-08T04:24:01;12.80;;;8.43;;
75191;SDS011;63771;52.580;9.734;2023-04-08T04:26:26;12.63;;;7.33;;
75191;SDS011;63771;52.580;9.734;2023-04-08T04:28:51;16.17;;;8.17;;
75191;SDS011;63771;52.580;9.734;2023-04-08T04:31:17;12.03;;;8.57;;
75191;SDS011;63771;52.580;9.734;2023-04-08T04:33:44;11.60;;;7.88;;
75191;SDS011;63771;52.580;9.734;2023-04-08T04:36:11;12.77;;;8.15;;
75191;SDS011;63771;52.580;9.734;2023-04-08T04:38:36;12.80;;;7.90;;
75191;SDS011;63771;52.580;9.734;2023-04-08T04:41:02;16.15;;;8.40;;
75191;SDS011;63771;52.580;9.734;2023-04-08T04:43:28;14.52;;;8.40;;
75191;SDS011;63771;52.580;9.734;2023-04-08T04:45:53;13.03;;;8.30;;
75191;SDS011;63771;52.580;9.734;2023-04-08T04:48:20;14.32;;;9.57;;
75191;SDS011;63771;52.580;9.734;2023-04-08T04:50:53;13.20;;;7.77;;
75191;SDS011;63771;52.580;9.734;2023-04-08T04:53:22;11.35;;;7.22;;
75191;SDS011;63771;52.580;9.734;2023-04-08T04:55:47;12.13;;;8.13;;
75191;SDS011;63771;52.580;9.734;2023-04-08T04:58:12;13.23;;;8.47;;
75191;SDS011;63771;52.580;9.734;2023-04-08T05:00:38;18.60;;;9.27;;
75191;SDS011;63771;52.580;9.734;2023-04-08T05:03:03;15.47;;;9.17;;
75191;SDS011;63771;52.580;9.734;2023-04-08T05:05:28;15.30;;;8.73;;
75191;SDS011;63771;52.580;9.734;2023-04-08T05:07:53;12.10;;;8.23;;
75191;SDS011;63771;52.580;9.734;2023-04-08T05:10:19;13.55;;;8.88;;
75191;SDS011;63771;52.580;9.734;2023-04-08T05:12:45;14.07;;;8.93;;
75191;SDS011;63771;52.580;9.734;2023-04-08T05:15:10;14.17;;;8.60;;
75191;SDS011;63771;52.580;9.734;2023-04-08T05:17:35;17.07;;;8.90;;
75191;SDS011;63771;52.580;9.734;2023-04-08T05:20:01;17.70;;;8.30;;
75191;SDS011;63771;52.580;9.734;2023-04-08T05:22:26;15.80;;;9.93;;
75191;SDS011;63771;52.580;9.734;2023-04-08T05:24:51;14.87;;;9.97;;
75191;SDS011;63771;52.580;9.734;2023-04-08T05:27:17;16.60;;;8.27;;
75191;SDS011;63771;52.580;9.734;2023-04-08T05:29:42;13.30;;;8.70;;
75191;SDS011;63771;52.580;9.734;2023-04-08T05:32:07;13.53;;;8.90;;
75191;SDS011;63771;52.580;9.734;2023-04-08T05:34:33;14.80;;;8.20;;
75191;SDS011;63771;52.580;9.734;2023-04-08T05:36:58;16.27;;;8.00;;
75191;SDS011;63771;52.580;9.734;2023-04-08T05:39:23;11.10;;;8.33;;
75191;SDS011;63771;52.580;9.734;2023-04-08T05:41:49;12.77;;;8.57;;
75191;SDS011;63771;52.580;9.734;2023-04-08T05:44:14;14.03;;;7.77;;
75191;SDS011;63771;52.580;9.734;2023-04-08T05:46:40;13.05;;;8.70;;
75191;SDS011;63771;52.580;9.734;2023-04-08T05:49:05;14.43;;;9.17;;
75191;SDS011;63771;52.580;9.734;2023-04-08T05:51:30;10.57;;;7.70;;
75191;SDS011;63771;52.580;9.734;2023-04-08T05:53:55;11.10;;;7.20;;
75191;SDS011;63771;52.580;9.734;2023-04-08T05:56:21;13.50;;;8.17;;
75191;SDS011;63771;52.580;9.734;2023-04-08T05:58:46;11.33;;;7.43;;
75191;SDS011;63771;52.580;9.734;2023-04-08T06:01:12;10.85;;;7.13;;
75191;SDS011;63771;52.580;9.734;2023-04-08T06:03:37;12.37;;;7.77;;
75191;SDS011;63771;52.580;9.734;2023-04-08T06:06:03;13.95;;;9.85;;
75191;SDS011;63771;52.580;9.734;2023-04-08T06:08:28;13.02;;;7.85;;
75191;SDS011;63771;52.580;9.734;2023-04-08T06:10:54;12.17;;;7.87;;
75191;SDS011;63771;52.580;9.734;2023-04-08T06:13:19;13.95;;;8.60;;
75191;SDS011;63771;52.580;9.734;2023-04-08T06:15:45;13.25;;;9.25;;
75191;SDS011;63771;52.580;9.734;2023-04-08T06:18:12;15.43;;;9.00;;
75191;SDS011;63771;52.580;9.734;2023-04-08T06:20:38;13.15;;;8.77;;
75191;SDS011;63771;52.580;9.734;2023-04-08T06:23:04;14.90;;;9.88;;
75191;SDS011;63771;52.580;9.734;2023-04-08T06:25:29;15.48;;;8.90;;
75191;SDS011;63771;52.580;9.734;2023-04-08T06:27:55;19.73;;;9.57;;
75191;SDS011;63771;52.580;9.734;2023-04-08T06:30:20;15.13;;;8.93;;
75191;SDS011;63771;52.580;9.734;2023-04-08T06:32:45;16.15;;;9.60;;
75191;SDS011;63771;52.580;9.734;2023-04-08T06:35:11;15.18;;;8.70;;
75191;SDS011;63771;52.580;9.734;2023-04-08T06:37:37;16.42;;;9.70;;
75191;SDS011;63771;52.580;9.734;2023-04-08T06:40:03;16.45;;;10.05;;
75191;SDS011;63771;52.580;9.734;2023-04-08T06:42:29;16.08;;;8.90;;
75191;SDS011;63771;52.580;9.734;2023-04-08T06:44:54;17.43;;;10.90;;
75191;SDS011;63771;52.580;9.734;2023-04-08T06:47:20;11.73;;;8.65;;
75191;SDS011;63771;52.580;9.734;2023-04-08T06:49:46;16.83;;;9.10;;
75191;SDS011;63771;52.580;9.734;2023-04-08T06:52:11;18.07;;;9.57;;
75191;SDS011;63771;52.580;9.734;2023-04-08T06:54:36;15.18;;;9.57;;
75191;SDS011;63771;52.580;9.734;2023-04-08T06:57:02;16.90;;;9.00;;
75191;SDS011;63771;52.580;9.734;2023-04-08T06:59:28;15.90;;;9.80;;
75191;SDS011;63771;52.580;9.734;2023-04-08T07:01:54;14.60;;;9.18;;
75191;SDS011;63771;52.580;9.734;2023-04-08T07:04:19;17.08;;;9.82;;
75191;SDS011;63771;52.580;9.734;2023-04-08T07:06:45;14.30;;;9.83;;
75191;SDS011;63771;52.580;9.734;2023-04-08T07:09:10;18.80;;;10.67;;
75191;SDS011;63771;52.580;9.734;2023-04-08T07:11:36;17.42;;;10.93;;
75191;SDS011;63771;52.580;9.734;2023-04-08T07:14:01;15.20;;;9.50;;
75191;SDS011;63771;52.580;9.734;2023-04-08T07:16:26;16.95;;;9.52;;
75191;SDS011;63771;52.580;9.734;2023-04-08T07:18:52;14.53;;;9.30;;
75191;SDS011;63771;52.580;9.734;2023-04-08T07:21:17;14.57;;;9.43;;
75191;SDS011;63771;52.580;9.734;2023-04-08T07:23:43;17.30;;;9.95;;
75191;SDS011;63771;52.580;9.734;2023-04-08T07:26:08;16.10;;;9.53;;
75191;SDS011;63771;52.580;9.734;2023-04-08T07:28:33;13.43;;;9.23;;
75191;SDS011;63771;52.580;9.734;2023-04-08T07:31:13;15.20;;;9.63;;
75191;SDS011;63771;52.580;9.734;2023-04-08T07:33:40;17.05;;;9.57;;
75191;SDS011;63771;52.580;9.734;2023-04-08T07:36:06;18.38;;;9.57;;
75191;SDS011;63771;52.580;9.734;2023-04-08T07:38:33;13.73;;;8.82;;
75191;SDS011;63771;52.580;9.734;2023-04-08T07:40:58;14.23;;;9.03;;
75191;SDS011;63771;52.580;9.734;2023-04-08T07:43:24;15.85;;;9.10;;
75191;SDS011;63771;52.580;9.734;2023-04-08T07:45:49;17.67;;;10.40;;
75191;SDS011;63771;52.580;9.734;2023-04-08T07:48:15;15.82;;;9.73;;
75191;SDS011;63771;52.580;9.734;2023-04-08T07:50:40;15.57;;;10.03;;
75191;SDS011;63771;52.580;9.734;2023-04-08T07:53:05;15.90;;;9.55;;
75191;SDS011;63771;52.580;9.734;2023-04-08T07:55:32;17.08;;;10.30;;
75191;SDS011;63771;52.580;9.734;2023-04-08T07:57:58;24.65;;;12.52;;
75191;SDS011;63771;52.580;9.734;2023-04-08T08:00:23;14.73;;;8.77;;
75191;SDS011;63771;52.580;9.734;2023-04-08T08:02:49;15.40;;;10.10;;
75191;SDS011;63771;52.580;9.734;2023-04-08T08:05:14;15.70;;;9.60;;
75191;SDS011;63771;52.580;9.734;2023-04-08T08:07:40;15.38;;;9.13;;
75191;SDS011;63771;52.580;9.734;2023-04-08T08:10:05;14.95;;;8.63;;
75191;SDS011;63771;52.580;9.734;2023-04-08T08:12:31;18.17;;;9.98;;
75191;SDS011;63771;52.580;9.734;2023-04-08T08:14:56;15.47;;;9.73;;
75191;SDS011;63771;52.580;9.734;2023-04-08T08:17:23;12.55;;;8.48;;
75191;SDS011;63771;52.580;9.734;2023-04-08T08:19:49;13.88;;;9.43;;
75191;SDS011;63771;52.580;9.734;2023-04-08T08:22:15;15.45;;;10.13;;
75191;SDS011;63771;52.580;9.734;2023-04-08T08:24:40;14.95;;;9.50;;
75191;SDS011;63771;52.580;9.734;2023-04-08T08:27:07;16.77;;;9.43;;
75191;SDS011;63771;52.580;9.734;2023-04-08T08:29:34;13.02;;;9.75;;
75191;SDS011;63771;52.580;9.734;2023-04-08T08:32:01;15.40;;;9.10;;
75191;SDS011;63771;52.580;9.734;2023-04-08T08:34:27;13.77;;;8.90;;
75191;SDS011;63771;52.580;9.734;2023-04-08T08:36:52;13.48;;;9.55;;
75191;SDS011;63771;52.580;9.734;2023-04-08T08:39:18;15.10;;;9.43;;
75191;SDS011;63771;52.580;9.734;2023-04-08T08:41:43;14.45;;;8.43;;
75191;SDS011;63771;52.580;9.734;2023-04-08T08:44:10;17.05;;;10.15;;
75191;SDS011;63771;52.580;9.734;2023-04-08T08:46:36;14.57;;;9.55;;
75191;SDS011;63771;52.580;9.734;2023-04-08T08:49:08;13.93;;;9.73;;
75191;SDS011;63771;52.580;9.734;2023-04-08T08:51:33;14.00;;;8.90;;
75191;SDS011;63771;52.580;9.734;2023-04-08T08:54:02;16.83;;;9.48;;
75191;SDS011;63771;52.580;9.734;2023-04-08T08:56:28;14.50;;;10.25;;
75191;SDS011;63771;52.580;9.734;2023-04-08T08:58:54;14.02;;;8.60;;
75191;SDS011;63771;52.580;9.734;2023-04-08T09:01:32;14.80;;;9.50;;
75191;SDS011;63771;52.580;9.734;2023-04-08T09:04:14;15.27;;;9.77;;
75191;SDS011;63771;52.580;9.734;2023-04-08T09:06:45;16.30;;;8.98;;
75191;SDS011;63771;52.580;9.734;2023-04-08T09:09:11;13.82;;;9.07;;
75191;SDS011;63771;52.580;9.734;2023-04-08T09:11:37;14.35;;;9.80;;
75191;SDS011;63771;52.580;9.734;2023-04-08T09:14:19;12.65;;;8.60;;
75191;SDS011;63771;52.580;9.734;2023-04-08T09:16:48;13.63;;;9.77;;
75191;SDS011;63771;52.580;9.734;2023-04-08T09:19:14;15.18;;;10.32;;
75191;SDS011;63771;52.580;9.734;2023-04-08T09:21:40;14.77;;;10.10;;
75191;SDS011;63771;52.580;9.734;2023-04-08T09:24:06;13.77;;;8.95;;
75191;SDS011;63771;52.580;9.734;2023-04-08T09:26:33;10.40;;;7.80;;
75191;SDS011;63771;52.580;9.734;2023-04-08T09:31:31;11.95;;;8.40;;
75191;SDS011;63771;52.580;9.734;2023-04-08T09:33:58;12.82;;;8.98;;
75191;SDS011;63771;52.580;9.734;2023-04-08T09:36:34;11.00;;;8.02;;
75191;SDS011;63771;52.580;9.734;2023-04-08T09:38:59;12.93;;;8.50;;
75191;SDS011;63771;52.580;9.734;2023-04-08T09:41:25;10.53;;;9.03;;
75191;SDS011;63771;52.580;9.734;2023-04-08T09:43:53;10.70;;;7.95;;
75191;SDS011;63771;52.580;9.734;2023-04-08T09:46:28;11.73;;;8.80;;
75191;SDS011;63771;52.580;9.734;2023-04-08T09:49:04;10.48;;;7.25;;
75191;SDS011;63771;52.580;9.734;2023-04-08T09:52:23;12.35;;;8.43;;
75191;SDS011;63771;52.580;9.734;2023-04-08T09:55:04;11.10;;;7.60;;
75191;SDS011;63771;52.580;9.734;2023-04-08T09:57:39;11.25;;;7.50;;
75191;SDS011;63771;52.580;9.734;2023-04-08T10:00:14;12.52;;;9.38;;
75191;SDS011;63771;52.580;9.734;2023-04-08T10:05:31;14.10;;;9.32;;
75191;SDS011;63771;52.580;9.734;2023-04-08T10:08:00;13.70;;;8.70;;
75191;SDS011;63771;52.580;9.734;2023-04-08T10:10:25;12.30;;;8.10;;
75191;SDS011;63771;52.580;9.734;2023-04-08T10:12:51;14.63;;;9.98;;
75191;SDS011;63771;52.580;9.734;2023-04-08T10:15:23;13.32;;;8.50;;
75191;SDS011;63771;52.580;9.734;2023-04-08T10:17:49;12.48;;;8.57;;
75191;SDS011;63771;52.580;9.734;2023-04-08T10:23:10;11.65;;;8.90;;
75191;SDS011;63771;52.580;9.734;2023-04-08T10:25:40;12.27;;;8.07;;
75191;SDS011;63771;52.580;9.734;2023-04-08T10:30:41;12.18;;;8.20;;
75191;SDS011;63771;52.580;9.734;2023-04-08T10:35:55;12.48;;;9.00;;
75191;SDS011;63771;52.580;9.734;2023-04-08T10:38:24;13.30;;;9.85;;
75191;SDS011;63771;52.580;9.734;2023-04-08T10:40:49;13.73;;;9.02;;
75191;SDS011;63771;52.580;9.734;2023-04-08T10:43:16;12.57;;;8.07;;
75191;SDS011;63771;52.580;9.734;2023-04-08T10:45:42;14.82;;;9.48;;
75191;SDS011;63771;52.580;9.734;2023-04-08T10:48:19;14.38;;;9.25;;
75191;SDS011;63771;52.580;9.734;2023-04-08T10:50:58;15.55;;;8.50;;
75191;SDS011;63771;52.580;9.734;2023-04-08T10:53:29;11.05;;;8.27;;
75191;SDS011;63771;52.580;9.734;2023-04-08T10:56:02;11.35;;;8.80;;
75191;SDS011;63771;52.580;9.734;2023-04-08T10:58:48;15.95;;;8.98;;
75191;SDS011;63771;52.580;9.734;2023-04-08T11:01:15;13.60;;;9.18;;
75191;SDS011;63771;52.580;9.734;2023-04-08T11:03:40;12.68;;;9.20;;
75191;SDS011;63771;52.580;9.734;2023-04-08T11:06:07;15.75;;;10.25;;
75191;SDS011;63771;52.580;9.734;2023-04-08T11:08:32;12.88;;;8.80;;
75191;SDS011;63771;52.580;9.734;2023-04-08T11:10:59;12.68;;;10.23;;
75191;SDS011;63771;52.580;9.734;2023-04-08T11:13:29;14.90;;;9.60;;
75191;SDS011;63771;52.580;9.734;2023-04-08T11:15:55;16.30;;;9.90;;
75191;SDS011;63771;52.580;9.734;2023-04-08T11:18:22;15.90;;;10.18;;
75191;SDS011;63771;52.580;9.734;2023-04-08T11:20:52;13.43;;;9.73;;
75191;SDS011;63771;52.580;9.734;2023-04-08T11:23:17;15.38;;;10.00;;
75191;SDS011;63771;52.580;9.734;2023-04-08T11:25:43;14.98;;;8.90;;
75191;SDS011;63771;52.580;9.734;2023-04-08T11:28:10;12.68;;;9.35;;
75191;SDS011;63771;52.580;9.734;2023-04-08T11:30:39;18.85;;;9.90;;
75191;SDS011;63771;52.580;9.734;2023-04-08T11:33:06;13.82;;;9.55;;
75191;SDS011;63771;52.580;9.734;2023-04-08T11:35:31;14.23;;;9.65;;
75191;SDS011;63771;52.580;9.734;2023-04-08T11:37:57;12.85;;;9.30;;
75191;SDS011;63771;52.580;9.734;2023-04-08T11:40:23;12.77;;;9.05;;
75191;SDS011;63771;52.580;9.734;2023-04-08T11:42:49;16.88;;;9.68;;
75191;SDS011;63771;52.580;9.734;2023-04-08T11:45:15;15.05;;;8.77;;
75191;SDS011;63771;52.580;9.734;2023-04-08T11:47:41;14.65;;;10.00;;
75191;SDS011;63771;52.580;9.734;2023-04-08T11:50:08;15.43;;;10.82;;
75191;SDS011;63771;52.580;9.734;2023-04-08T11:52:46;13.57;;;9.15;;
75191;SDS011;63771;52.580;9.734;2023-04-08T11:55:23;15.20;;;9.40;;
75191;SDS011;63771;52.580;9.734;2023-04-08T11:57:48;13.27;;;9.43;;
75191;SDS011;63771;52.580;9.734;2023-04-08T12:00:15;17.58;;;9.70;;
75191;SDS011;63771;52.580;9.734;2023-04-08T12:02:40;11.20;;;8.57;;
75191;SDS011;63771;52.580;9.734;2023-04-08T12:05:05;14.37;;;9.27;;
75191;SDS011;63771;52.580;9.734;2023-04-08T12:07:31;16.02;;;10.35;;
75191;SDS011;63771;52.580;9.734;2023-04-08T12:09:57;16.67;;;10.15;;
75191;SDS011;63771;52.580;9.734;2023-04-08T12:12:22;14.43;;;10.18;;
75191;SDS011;63771;52.580;9.734;2023-04-08T12:14:48;14.57;;;9.13;;
75191;SDS011;63771;52.580;9.734;2023-04-08T12:17:14;16.85;;;10.65;;
75191;SDS011;63771;52.580;9.734;2023-04-08T12:19:39;14.82;;;9.63;;
75191;SDS011;63771;52.580;9.734;2023-04-08T12:22:05;15.07;;;10.20;;
75191;SDS011;63771;52.580;9.734;2023-04-08T12:24:30;14.73;;;10.02;;
75191;SDS011;63771;52.580;9.734;2023-04-08T12:26:56;14.85;;;8.52;;
75191;SDS011;63771;52.580;9.734;2023-04-08T12:29:21;15.52;;;9.45;;
75191;SDS011;63771;52.580;9.734;2023-04-08T12:31:46;12.93;;;9.60;;
75191;SDS011;63771;52.580;9.734;2023-04-08T12:34:12;16.60;;;9.87;;
75191;SDS011;63771;52.580;9.734;2023-04-08T12:36:37;15.83;;;9.53;;
75191;SDS011;63771;52.580;9.734;2023-04-08T12:39:02;18.57;;;10.40;;
75191;SDS011;63771;52.580;9.734;2023-04-08T12:41:28;15.20;;;10.18;;
75191;SDS011;63771;52.580;9.734;2023-04-08T12:43:53;14.77;;;9.40;;
75191;SDS011;63771;52.580;9.734;2023-04-08T12:46:18;15.20;;;8.80;;
75191;SDS011;63771;52.580;9.734;2023-04-08T12:48:44;14.70;;;9.50;;
75191;SDS011;63771;52.580;9.734;2023-04-08T12:51:09;15.60;;;9.75;;
75191;SDS011;63771;52.580;9.734;2023-04-08T12:53:35;15.52;;;9.10;;
75191;SDS011;63771;52.580;9.734;2023-04-08T12:56:01;19.02;;;10.05;;
75191;SDS011;63771;52.580;9.734;2023-04-08T12:58:26;13.38;;;9.15;;
75191;SDS011;63771;52.580;9.734;2023-04-08T13:00:52;11.93;;;8.70;;
75191;SDS011;63771;52.580;9.734;2023-04-08T13:03:17;13.97;;;10.27;;
75191;SDS011;63771;52.580;9.734;2023-04-08T13:05:42;12.97;;;9.23;;
75191;SDS011;63771;52.580;9.734;2023-04-08T13:08:08;13.60;;;8.90;;
75191;SDS011;63771;52.580;9.734;2023-04-08T13:10:33;17.80;;;10.50;;
75191;SDS011;63771;52.580;9.734;2023-04-08T13:12:59;15.82;;;9.40;;
75191;SDS011;63771;52.580;9.734;2023-04-08T13:15:24;14.17;;;10.13;;
75191;SDS011;63771;52.580;9.734;2023-04-08T13:17:50;15.30;;;9.73;;
75191;SDS011;63771;52.580;9.734;2023-04-08T13:20:15;16.70;;;9.52;;
75191;SDS011;63771;52.580;9.734;2023-04-08T13:22:41;14.02;;;9.27;;
75191;SDS011;63771;52.580;9.734;2023-04-08T13:25:06;14.13;;;8.83;;
75191;SDS011;63771;52.580;9.734;2023-04-08T13:27:32;13.98;;;9.30;;
75191;SDS011;63771;52.580;9.734;2023-04-08T13:29:57;11.93;;;7.90;;
75191;SDS011;63771;52.580;9.734;2023-04-08T13:32:22;17.23;;;9.57;;
75191;SDS011;63771;52.580;9.734;2023-04-08T13:34:48;15.40;;;10.67;;
75191;SDS011;63771;52.580;9.734;2023-04-08T13:37:13;16.00;;;10.63;;
75191;SDS011;63771;52.580;9.734;2023-04-08T13:39:38;13.33;;;9.40;;
75191;SDS011;63771;52.580;9.734;2023-04-08T13:42:05;14.73;;;9.57;;
75191;SDS011;63771;52.580;9.734;2023-04-08T13:44:30;15.03;;;9.83;;
75191;SDS011;63771;52.580;9.734;2023-04-08T13:46:57;15.95;;;9.85;;
75191;SDS011;63771;52.580;9.734;2023-04-08T13:49:22;14.95;;;9.35;;
75191;SDS011;63771;52.580;9.734;2023-04-08T13:51:47;12.75;;;8.82;;
75191;SDS011;63771;52.580;9.734;2023-04-08T13:54:13;15.37;;;10.07;;
75191;SDS011;63771;52.580;9.734;2023-04-08T13:56:38;19.13;;;10.27;;
75191;SDS011;63771;52.580;9.734;2023-04-08T13:59:03;14.57;;;8.77;;
75191;SDS011;63771;52.580;9.734;2023-04-08T14:01:29;13.13;;;9.27;;
75191;SDS011;63771;52.580;9.734;2023-04-08T14:03:54;14.10;;;9.97;;
75191;SDS011;63771;52.580;9.734;2023-04-08T14:06:20;15.23;;;9.30;;
75191;SDS011;63771;52.580;9.734;2023-04-08T14:08:45;13.33;;;9.83;;
75191;SDS011;63771;52.580;9.734;2023-04-08T14:11:10;14.83;;;9.13;;
75191;SDS011;63771;52.580;9.734;2023-04-08T14:13:36;17.70;;;9.70;;
75191;SDS011;63771;52.580;9.734;2023-04-08T14:16:01;14.80;;;8.83;;
75191;SDS011;63771;52.580;9.734;2023-04-08T14:18:27;13.93;;;9.43;;
75191;SDS011;63771;52.580;9.734;2023-04-08T14:20:53;13.60;;;9.20;;
75191;SDS011;63771;52.580;9.734;2023-04-08T14:23:18;14.10;;;9.15;;
75191;SDS011;63771;52.580;9.734;2023-04-08T14:25:43;16.13;;;10.27;;
75191;SDS011;63771;52.580;9.734;2023-04-08T14:28:09;14.83;;;9.50;;
75191;SDS011;63771;52.580;9.734;2023-04-08T14:30:34;13.00;;;9.33;;
75191;SDS011;63771;52.580;9.734;2023-04-08T14:33:00;19.10;;;11.80;;
75191;SDS011;63771;52.580;9.734;2023-04-08T14:35:25;13.93;;;8.88;;
75191;SDS011;63771;52.580;9.734;2023-04-08T14:37:51;19.55;;;11.07;;
75191;SDS011;63771;52.580;9.734;2023-04-08T14:40:16;17.60;;;11.13;;
75191;SDS011;63771;52.580;9.734;2023-04-08T14:42:41;17.90;;;10.23;;
75191;SDS011;63771;52.580;9.734;2023-04-08T14:45:09;15.05;;;10.23;;
75191;SDS011;63771;52.580;9.734;2023-04-08T14:47:34;14.45;;;9.65;;
75191;SDS011;63771;52.580;9.734;2023-04-08T14:50:00;12.60;;;8.27;;